createdAt,value
2019-04-04T00:01:16.739Z,28.43
2019-04-04T00:03:45.891Z,16.83
2019-04-04T00:06:15.569Z,22.13
2019-04-04T00:08:45.272Z,19.97
2019-04-04T00:11:22.372Z,12.83
2019-04-04T00:20:19.608Z,13.93
2019-04-04T00:26:00.158Z,18.40
2019-04-04T00:28:31.544Z,12.30
2019-04-04T00:31:02.771Z,11.47
2019-04-04T00:33:32.623Z,8.07
2019-04-04T00:36:02.648Z,11.93
2019-04-04T00:38:33.193Z,10.57
2019-04-04T00:41:03.028Z,7.90
2019-04-04T00:43:32.814Z,8.80
2019-04-04T00:46:02.485Z,6.87
2019-04-04T00:48:34.056Z,8.07
2019-04-04T00:51:03.568Z,10.37
2019-04-04T00:53:33.350Z,9.90
2019-04-04T00:56:03.105Z,7.60
2019-04-04T00:58:32.762Z,9.70
2019-04-04T01:01:02.391Z,10.63
2019-04-04T01:03:32.056Z,8.20
2019-04-04T01:06:03.508Z,8.23
2019-04-04T01:08:32.979Z,10.23
2019-04-04T01:11:02.636Z,14.77
2019-04-04T01:13:32.386Z,10.60
2019-04-04T01:16:33.641Z,11.47
2019-04-04T01:19:05.218Z,14.90
2019-04-04T01:21:34.877Z,8.97
2019-04-04T01:24:04.576Z,13.57
2019-04-04T01:26:35.275Z,10.33
2019-04-04T01:29:06.032Z,12.00
2019-04-04T01:31:35.643Z,9.47
2019-04-04T01:34:05.266Z,8.23
2019-04-04T01:36:34.896Z,12.90
2019-04-04T01:39:05.908Z,8.13
2019-04-04T01:41:36.306Z,9.50
2019-04-04T01:44:06.642Z,9.83
2019-04-04T01:46:36.059Z,10.83
2019-04-04T01:49:05.623Z,10.50
2019-04-04T01:51:35.206Z,10.10
2019-04-04T01:54:04.774Z,10.73
2019-04-04T01:56:35.021Z,11.67
2019-04-04T01:59:05.574Z,9.73
2019-04-04T02:01:35.137Z,6.93
2019-04-04T02:04:04.863Z,10.80
2019-04-04T02:06:34.428Z,12.00
2019-04-04T02:09:05.613Z,10.37
2019-04-04T02:11:37.308Z,9.07
2019-04-04T02:14:11.896Z,8.60
2019-04-04T02:16:43.345Z,8.60
2019-04-04T02:19:12.825Z,8.87
2019-04-04T02:21:42.247Z,10.80
2019-04-04T02:24:12.882Z,8.63
2019-04-04T02:26:42.436Z,8.73
2019-04-04T02:29:11.855Z,10.20
2019-04-04T02:31:42.919Z,10.97
2019-04-04T02:34:12.574Z,10.13
2019-04-04T02:36:42.125Z,7.57
2019-04-04T02:39:14.633Z,8.93
2019-04-04T02:41:47.575Z,14.00
2019-04-04T02:44:15.703Z,14.20
2019-04-04T02:46:45.836Z,16.97
2019-04-04T02:49:16.826Z,13.07
2019-04-04T02:51:46.422Z,11.13
2019-04-04T02:54:15.976Z,12.90
2019-04-04T02:56:45.402Z,9.53
2019-04-04T02:59:20.205Z,9.67
2019-04-04T03:01:46.401Z,10.23
2019-04-04T03:04:17.063Z,10.00
2019-04-04T03:06:46.544Z,8.23
2019-04-04T03:09:16.105Z,11.47
2019-04-04T03:11:45.749Z,11.43
2019-04-04T03:14:15.261Z,8.70
2019-04-04T03:16:44.811Z,7.50
2019-04-04T03:19:14.336Z,11.60
2019-04-04T03:21:43.912Z,10.93
2019-04-04T03:24:13.334Z,12.40
2019-04-04T03:26:42.973Z,9.43
2019-04-04T03:29:12.662Z,12.43
2019-04-04T03:31:42.310Z,12.73
2019-04-04T03:34:13.090Z,9.33
2019-04-04T03:36:42.902Z,10.20
2019-04-04T03:39:12.458Z,10.83
2019-04-04T03:41:42.168Z,7.40
2019-04-04T03:44:11.744Z,12.43
2019-04-04T03:46:41.272Z,10.30
2019-04-04T03:49:10.779Z,12.43
2019-04-04T03:51:40.335Z,10.83
2019-04-04T03:54:11.497Z,10.13
2019-04-04T03:56:40.918Z,11.23
2019-04-04T03:59:10.421Z,10.63
2019-04-04T04:01:54.205Z,10.63
2019-04-04T04:04:26.815Z,13.90
2019-04-04T04:06:55.073Z,11.90
2019-04-04T04:09:27.255Z,13.30
2019-04-04T04:11:56.947Z,13.23
2019-04-04T04:14:29.484Z,10.03
2019-04-04T04:17:02.048Z,9.93
2019-04-04T04:19:33.598Z,19.73
2019-04-04T04:22:02.931Z,19.23
2019-04-04T04:24:32.482Z,21.23
2019-04-04T04:27:02.008Z,15.10
2019-04-04T04:29:31.451Z,14.17
2019-04-04T04:32:00.856Z,10.47
2019-04-04T04:34:33.321Z,13.93
2019-04-04T04:37:01.568Z,10.30
2019-04-04T04:39:41.125Z,15.57
2019-04-04T04:42:09.384Z,13.67
2019-04-04T04:44:39.096Z,11.73
2019-04-04T04:47:08.721Z,15.03
2019-04-04T04:49:38.207Z,16.10
2019-04-04T04:52:07.914Z,13.73
2019-04-04T04:54:40.935Z,12.43
2019-04-04T04:57:28.204Z,11.60
2019-04-04T04:59:45.694Z,14.60
2019-04-04T05:02:31.485Z,13.70
2019-04-04T05:05:49.949Z,19.73
2019-04-04T05:08:25.053Z,23.33
2019-04-04T05:11:11.268Z,17.67
2019-04-04T05:13:44.478Z,14.60
2019-04-04T05:16:14.267Z,13.97
2019-04-04T05:18:43.961Z,14.17
2019-04-04T05:21:24.388Z,19.17
2019-04-04T05:23:48.345Z,19.00
2019-04-04T05:26:21.077Z,24.33
2019-04-04T05:28:50.762Z,17.00
2019-04-04T05:31:26.116Z,19.37
2019-04-04T05:33:59.799Z,16.63
2019-04-04T05:36:29.575Z,14.60
2019-04-04T05:38:59.265Z,16.97
2019-04-04T05:41:29.062Z,15.47
2019-04-04T05:44:03.387Z,20.27
2019-04-04T05:46:37.237Z,17.10
2019-04-04T05:49:08.278Z,22.17
2019-04-04T05:51:41.055Z,27.97
2019-04-04T05:54:13.553Z,21.33
2019-04-04T05:56:44.537Z,23.33
2019-04-04T05:59:14.426Z,26.93
2019-04-04T06:01:45.555Z,23.20
2019-04-04T06:04:17.235Z,15.87
2019-04-04T06:06:49.874Z,17.03
2019-04-04T06:09:19.720Z,22.07
2019-04-04T06:11:53.068Z,19.40
2019-04-04T06:14:37.467Z,16.27
2019-04-04T06:17:09.362Z,19.77
2019-04-04T06:19:44.683Z,22.63
2019-04-04T06:22:14.723Z,19.07
2019-04-04T06:24:44.325Z,20.73
2019-04-04T06:27:14.032Z,17.33
2019-04-04T06:29:47.674Z,22.87
2019-04-04T06:32:18.323Z,18.37
2019-04-04T06:34:47.982Z,21.70
2019-04-04T06:37:18.094Z,20.73
2019-04-04T06:39:48.785Z,25.63
2019-04-04T06:42:18.406Z,19.07
2019-04-04T06:44:54.330Z,25.20
2019-04-04T06:47:26.326Z,23.70
2019-04-04T06:49:56.816Z,21.00
2019-04-04T06:52:28.971Z,18.50
2019-04-04T06:54:58.683Z,19.03
2019-04-04T07:00:27.666Z,16.60
2019-04-04T07:02:58.555Z,28.43
2019-04-04T07:05:51.870Z,17.33
2019-04-04T07:08:21.507Z,23.07
2019-04-04T07:10:57.775Z,26.03
2019-04-04T07:16:41.794Z,20.33
2019-04-04T07:19:14.133Z,17.03
2019-04-04T07:21:42.720Z,21.23
2019-04-04T07:24:13.450Z,22.33
2019-04-04T07:26:45.386Z,22.83
2019-04-04T07:29:17.926Z,22.40
2019-04-04T07:31:50.926Z,24.97
2019-04-04T07:34:33.994Z,18.60
2019-04-04T07:37:03.742Z,18.90
2019-04-04T07:39:49.920Z,19.97
2019-04-04T07:42:19.239Z,23.10
2019-04-04T07:44:48.956Z,23.77
2019-04-04T07:47:18.623Z,20.23
2019-04-04T07:49:48.191Z,20.97
2019-04-04T07:52:17.905Z,22.90
2019-04-04T07:54:47.582Z,22.60
2019-04-04T07:57:17.328Z,17.77
2019-04-04T07:59:55.910Z,23.23
2019-04-04T08:02:46.165Z,20.97
2019-04-04T08:05:46.291Z,21.13
2019-04-04T08:08:43.665Z,18.83
2019-04-04T08:11:13.303Z,22.63
2019-04-04T08:13:49.234Z,16.43
2019-04-04T08:16:18.861Z,25.67
2019-04-04T08:18:48.569Z,19.47
2019-04-04T08:21:18.107Z,24.03
2019-04-04T08:23:47.638Z,23.23
2019-04-04T08:26:17.241Z,16.70
2019-04-04T08:28:46.951Z,18.00
2019-04-04T08:31:16.628Z,23.63
2019-04-04T08:33:46.351Z,22.33
2019-04-04T08:36:19.115Z,20.23
2019-04-04T08:42:02.871Z,20.93
2019-04-04T08:44:32.556Z,22.50
2019-04-04T08:47:02.214Z,28.20
2019-04-04T08:49:31.780Z,25.57
2019-04-04T08:52:06.966Z,23.80
2019-04-04T08:54:48.039Z,19.63
2019-04-04T08:57:18.285Z,26.33
2019-04-04T08:59:47.717Z,22.53
2019-04-04T09:02:20.693Z,26.90
2019-04-04T09:04:53.166Z,22.70
2019-04-04T09:07:22.750Z,29.53
2019-04-04T09:10:49.301Z,21.73
2019-04-04T09:13:05.669Z,26.27
2019-04-04T09:15:35.473Z,31.30
2019-04-04T09:18:06.246Z,24.90
2019-04-04T09:20:40.218Z,21.00
2019-04-04T09:23:10.171Z,21.10
2019-04-04T09:25:40.937Z,18.90
2019-04-04T09:28:12.637Z,30.20
2019-04-04T09:30:42.325Z,26.53
2019-04-04T09:33:30.325Z,20.40
2019-04-04T09:35:59.227Z,20.33
2019-04-04T09:38:32.176Z,21.63
2019-04-04T09:41:02.094Z,24.10
2019-04-04T09:43:36.983Z,22.80
2019-04-04T09:46:08.092Z,23.37
2019-04-04T09:52:02.141Z,23.13
2019-04-04T09:54:31.830Z,22.23
2019-04-04T09:57:03.235Z,20.33
2019-04-04T09:59:32.943Z,26.70
2019-04-04T10:02:02.657Z,24.80
2019-04-04T10:04:32.447Z,25.60
2019-04-04T10:07:02.179Z,22.37
2019-04-04T10:09:35.095Z,20.70
2019-04-04T10:12:09.008Z,22.23
2019-04-04T10:14:46.082Z,23.47
2019-04-04T10:17:17.395Z,20.90
2019-04-04T10:20:02.362Z,18.53
2019-04-04T10:22:41.061Z,15.43
2019-04-04T10:28:16.897Z,19.37
2019-04-04T10:30:46.601Z,19.27
2019-04-04T10:33:16.244Z,18.93
2019-04-04T10:35:47.489Z,22.53
2019-04-04T10:38:17.226Z,19.97
2019-04-04T10:40:46.764Z,21.83
2019-04-04T10:43:16.370Z,20.37
2019-04-04T10:45:45.797Z,17.93
2019-04-04T10:48:15.437Z,20.17
2019-04-04T10:50:45.116Z,19.47
2019-04-04T10:53:14.978Z,21.93
2019-04-04T10:55:45.471Z,19.27
2019-04-04T10:58:15.236Z,19.97
2019-04-04T11:00:44.922Z,20.10
2019-04-04T11:03:14.790Z,21.03
2019-04-04T11:05:44.387Z,19.50
2019-04-04T11:08:14.151Z,18.37
2019-04-04T11:10:46.602Z,14.83
2019-04-04T11:13:33.386Z,29.40
2019-04-04T11:15:58.005Z,17.27
2019-04-04T11:18:27.614Z,24.80
2019-04-04T11:21:01.899Z,18.80
2019-04-04T11:23:42.509Z,15.23
2019-04-04T11:26:12.114Z,15.97
2019-04-04T11:31:30.855Z,21.73
2019-04-04T11:34:01.525Z,22.50
2019-04-04T11:36:37.249Z,18.23
2019-04-04T11:39:11.261Z,27.70
2019-04-04T11:41:42.482Z,20.47
2019-04-04T11:44:12.164Z,18.33
2019-04-04T11:46:41.999Z,19.47
2019-04-04T11:49:11.708Z,21.50
2019-04-04T11:51:53.535Z,22.43
2019-04-04T11:54:30.026Z,20.13
2019-04-04T11:56:59.668Z,18.57
2019-04-04T11:59:29.204Z,20.83
2019-04-04T12:04:40.247Z,19.50
2019-04-04T12:07:46.711Z,18.20
2019-04-04T12:10:16.564Z,15.93
2019-04-04T12:15:52.315Z,18.50
2019-04-04T12:18:39.095Z,19.50
2019-04-04T12:24:07.150Z,17.80
2019-04-04T12:26:36.721Z,14.77
2019-04-04T12:29:06.404Z,16.20
2019-04-04T12:41:03.034Z,21.03
2019-04-04T12:43:37.953Z,17.70
2019-04-04T12:46:19.608Z,14.37
2019-04-04T12:49:01.628Z,22.67
2019-04-04T12:51:36.966Z,31.00
2019-04-04T12:54:08.291Z,20.63
2019-04-04T12:56:46.201Z,27.50
2019-04-04T13:02:32.502Z,34.23
2019-04-04T13:05:02.126Z,25.57
2019-04-04T13:07:32.989Z,20.50
2019-04-04T13:19:18.658Z,15.90
2019-04-04T13:21:48.202Z,15.47
2019-04-04T13:24:24.232Z,19.77
2019-04-04T13:26:53.379Z,20.33
2019-04-04T13:29:28.985Z,20.10
2019-04-04T13:32:04.030Z,18.00
2019-04-04T13:34:38.513Z,16.27
2019-04-04T13:37:33.728Z,17.13
2019-04-04T13:40:08.435Z,16.40
2019-04-04T13:42:53.538Z,16.27
2019-04-04T13:45:28.975Z,17.33
2019-04-04T13:51:42.665Z,15.43
2019-04-04T13:57:22.540Z,14.63
2019-04-04T13:59:52.344Z,17.93
2019-04-04T14:02:22.500Z,19.53
2019-04-04T14:04:55.060Z,17.23
2019-04-04T14:07:23.898Z,16.67
2019-04-04T14:09:53.408Z,17.67
2019-04-04T14:12:22.897Z,20.73
2019-04-04T14:14:52.325Z,23.00
2019-04-04T14:17:22.829Z,23.57
2019-04-04T14:19:53.637Z,24.73
2019-04-04T14:22:23.144Z,20.00
2019-04-04T14:24:52.749Z,26.70
2019-04-04T14:27:22.276Z,21.63
2019-04-04T14:29:55.197Z,20.03
2019-04-04T14:32:23.605Z,17.83
2019-04-04T14:34:53.393Z,22.20
2019-04-04T14:37:22.893Z,20.23
2019-04-04T14:39:52.610Z,22.37
2019-04-04T14:42:22.385Z,16.00
2019-04-04T14:44:51.883Z,13.27
2019-04-04T14:47:21.883Z,17.07
2019-04-04T14:49:51.377Z,14.80
2019-04-04T14:52:21.058Z,18.60
2019-04-04T14:54:52.396Z,14.30
2019-04-04T14:57:21.965Z,14.67
2019-04-04T14:59:52.576Z,16.53
2019-04-04T15:02:23.894Z,12.13
2019-04-04T15:04:53.576Z,18.60
2019-04-04T15:07:23.033Z,17.67
2019-04-04T15:09:52.613Z,17.93
2019-04-04T15:12:22.102Z,14.03
2019-04-04T15:14:51.652Z,14.23
2019-04-04T15:17:21.318Z,12.10
2019-04-04T15:19:50.815Z,16.60
2019-04-04T15:22:20.382Z,14.77
2019-04-04T15:24:50.007Z,15.43
2019-04-04T15:27:19.760Z,16.23
2019-04-04T15:29:49.761Z,16.30
2019-04-04T15:32:19.255Z,19.30
2019-04-04T15:34:48.754Z,15.63
2019-04-04T15:37:18.363Z,17.47
2019-04-04T15:39:47.815Z,16.23
2019-04-04T15:42:17.371Z,17.73
2019-04-04T15:44:48.002Z,15.47
2019-04-04T15:47:17.730Z,15.23
2019-04-04T15:49:51.339Z,15.03
2019-04-04T15:52:21.426Z,14.40
2019-04-04T15:54:51.237Z,15.50
2019-04-04T15:57:20.859Z,20.43
2019-04-04T15:59:50.390Z,21.17
2019-04-04T16:02:20.861Z,14.00
2019-04-04T16:04:50.633Z,16.10
2019-04-04T16:07:20.442Z,19.67
2019-04-04T16:09:50.317Z,27.00
2019-04-04T16:12:20.316Z,17.07
2019-04-04T16:14:50.381Z,16.37
2019-04-04T16:17:21.308Z,22.33
2019-04-04T16:19:52.397Z,35.60
2019-04-04T16:22:22.030Z,19.80
2019-04-04T16:24:51.668Z,34.13
2019-04-04T16:27:21.234Z,19.67
2019-04-04T16:29:50.670Z,19.97
2019-04-04T16:32:20.320Z,25.23
2019-04-04T16:34:52.438Z,23.63
2019-04-04T16:37:21.193Z,20.23
2019-04-04T16:39:50.787Z,23.37
2019-04-04T16:42:20.360Z,18.60
2019-04-04T16:44:49.868Z,24.00
2019-04-04T16:47:19.439Z,29.33
2019-04-04T16:49:49.017Z,19.53
2019-04-04T16:52:18.515Z,29.27
2019-04-04T16:54:48.080Z,24.83
2019-04-04T16:57:17.588Z,18.87
2019-04-04T16:59:47.200Z,23.13
2019-04-04T17:02:16.624Z,21.03
2019-04-04T17:04:46.344Z,22.03
2019-04-04T17:07:15.985Z,21.77
2019-04-04T17:09:45.671Z,18.60
2019-04-04T17:12:15.467Z,21.87
2019-04-04T17:14:44.948Z,15.37
2019-04-04T17:17:14.655Z,20.37
2019-04-04T17:19:44.163Z,21.07
2019-04-04T17:22:13.604Z,25.13
2019-04-04T17:24:43.280Z,21.93
2019-04-04T17:27:12.782Z,35.23
2019-04-04T17:29:42.377Z,35.73
2019-04-04T17:32:13.388Z,44.70
2019-04-04T17:34:43.305Z,40.43
2019-04-04T17:37:13.080Z,57.40
2019-04-04T17:39:42.642Z,37.57
2019-04-04T17:42:12.571Z,41.90
2019-04-04T17:44:43.221Z,47.30
2019-04-04T17:47:12.800Z,76.63
2019-04-04T17:49:42.392Z,79.60
2019-04-04T17:52:13.780Z,61.60
2019-04-04T17:54:43.900Z,68.60
2019-04-04T17:57:13.515Z,49.40
2019-04-04T17:59:42.935Z,57.47
2019-04-04T18:02:12.641Z,40.50
2019-04-04T18:04:48.154Z,45.40
2019-04-04T18:07:13.705Z,49.30
2019-04-04T18:09:45.577Z,43.77
2019-04-04T18:12:16.883Z,51.53
2019-04-04T18:14:46.134Z,48.77
2019-04-04T18:17:15.795Z,60.03
2019-04-04T18:19:45.513Z,50.50
2019-04-04T18:22:15.008Z,34.33
2019-04-04T18:24:44.548Z,31.40
2019-04-04T18:27:14.233Z,35.43
2019-04-04T18:29:43.732Z,25.27
2019-04-04T18:32:16.546Z,28.90
2019-04-04T18:34:46.247Z,30.10
2019-04-04T18:37:17.258Z,41.23
2019-04-04T18:39:46.819Z,32.23
2019-04-04T18:42:16.432Z,31.20
2019-04-04T18:44:47.552Z,23.93
2019-04-04T18:47:17.052Z,31.70
2019-04-04T18:49:46.881Z,53.60
2019-04-04T18:52:16.451Z,55.70
2019-04-04T18:54:46.059Z,55.53
2019-04-04T18:57:15.630Z,30.60
2019-04-04T18:59:45.160Z,26.97
2019-04-04T19:02:14.795Z,27.50
2019-04-04T19:04:46.029Z,25.10
2019-04-04T19:07:15.629Z,24.40
2019-04-04T19:09:45.148Z,23.53
2019-04-04T19:12:16.074Z,24.97
2019-04-04T19:14:45.567Z,45.60
2019-04-04T19:17:15.171Z,48.50
2019-04-04T19:19:44.685Z,48.43
2019-04-04T19:22:14.306Z,48.13
2019-04-04T19:24:43.804Z,98.47
2019-04-04T19:27:13.481Z,55.13
2019-04-04T19:29:42.871Z,29.47
2019-04-04T19:32:14.426Z,22.37
2019-04-04T19:34:43.996Z,26.53
2019-04-04T19:37:13.637Z,46.60
2019-04-04T19:39:43.210Z,53.83
2019-04-04T19:42:12.963Z,48.00
2019-04-04T19:44:53.177Z,24.63
2019-04-04T19:47:14.972Z,24.90
2019-04-04T19:49:44.619Z,62.57
2019-04-04T19:52:14.242Z,62.00
2019-04-04T19:54:43.672Z,60.23
2019-04-04T19:57:13.267Z,49.13
2019-04-04T19:59:42.693Z,34.40
2019-04-04T20:02:12.184Z,39.07
2019-04-04T20:04:41.652Z,40.60
2019-04-04T20:07:11.287Z,41.67
2019-04-04T20:09:40.821Z,35.67
2019-04-04T20:12:10.318Z,34.30
2019-04-04T20:14:39.917Z,32.57
2019-04-04T20:17:09.567Z,30.73
2019-04-04T20:19:38.993Z,29.47
2019-04-04T20:22:08.487Z,36.90
2019-04-04T20:24:38.314Z,28.20
2019-04-04T20:27:09.429Z,29.40
2019-04-04T20:29:39.165Z,25.50
2019-04-04T20:32:08.813Z,24.30
2019-04-04T20:34:38.702Z,24.23
2019-04-04T20:37:08.270Z,27.40
2019-04-04T20:39:37.919Z,24.70
2019-04-04T20:42:07.447Z,24.80
2019-04-04T20:44:37.108Z,22.30
2019-04-04T20:47:06.538Z,22.67
2019-04-04T20:49:36.011Z,36.27
2019-04-04T20:52:05.429Z,32.37
2019-04-04T20:54:34.957Z,31.93
2019-04-04T20:57:04.519Z,29.97
2019-04-04T20:59:34.151Z,24.83
2019-04-04T21:02:03.715Z,23.53
2019-04-04T21:04:33.375Z,24.63
2019-04-04T21:07:02.899Z,23.50
2019-04-04T21:09:32.385Z,23.07
2019-04-04T21:12:01.949Z,22.90
2019-04-04T21:14:31.614Z,23.13
2019-04-04T21:17:01.181Z,21.87
2019-04-04T21:19:30.718Z,22.27
2019-04-04T21:22:00.233Z,24.33
2019-04-04T21:24:29.656Z,20.57
2019-04-04T21:26:59.110Z,19.00
2019-04-04T21:29:28.843Z,21.70
2019-04-04T21:31:58.355Z,21.00
2019-04-04T21:34:27.819Z,18.77
2019-04-04T21:36:57.356Z,18.10
2019-04-04T21:39:29.626Z,17.23
2019-04-04T21:41:58.077Z,27.73
2019-04-04T21:44:27.567Z,24.03
2019-04-04T21:46:56.989Z,21.23
2019-04-04T21:49:26.630Z,21.37
2019-04-04T21:51:56.240Z,22.10
2019-04-04T21:54:25.814Z,22.43
2019-04-04T21:56:55.250Z,27.07
2019-04-04T21:59:25.060Z,26.40
2019-04-04T22:01:54.620Z,17.43
2019-04-04T22:04:24.184Z,16.63
2019-04-04T22:06:53.823Z,19.67
2019-04-04T22:09:23.396Z,17.87
2019-04-04T22:11:53.074Z,22.23
2019-04-04T22:14:22.630Z,19.23
2019-04-04T22:16:53.759Z,20.57
2019-04-04T22:19:24.543Z,30.17
2019-04-04T22:21:54.055Z,21.70
2019-04-04T22:24:23.902Z,17.03
2019-04-04T22:26:53.413Z,17.43
2019-04-04T22:29:22.943Z,17.30
2019-04-04T22:31:52.705Z,20.37
2019-04-04T22:34:22.134Z,16.57
2019-04-04T22:36:51.624Z,14.70
2019-04-04T22:39:21.110Z,18.97
2019-04-04T22:41:50.742Z,17.60
2019-04-04T22:44:20.193Z,16.43
2019-04-04T22:46:49.747Z,17.13
2019-04-04T22:49:19.371Z,16.30
2019-04-04T22:51:49.796Z,29.47
2019-04-04T22:54:19.279Z,21.00
2019-04-04T22:56:48.702Z,19.30
2019-04-04T22:59:18.232Z,29.47
2019-04-04T23:01:48.252Z,23.83
2019-04-04T23:04:17.951Z,22.73
2019-04-04T23:06:47.605Z,23.03
2019-04-04T23:09:17.157Z,23.67
2019-04-04T23:11:46.641Z,23.83
2019-04-04T23:14:16.165Z,19.40
2019-04-04T23:16:46.926Z,23.97
2019-04-04T23:19:16.498Z,18.70
2019-04-04T23:21:47.356Z,20.60
2019-04-04T23:24:18.023Z,20.97
2019-04-04T23:26:47.512Z,20.30
2019-04-04T23:29:16.962Z,19.63
2019-04-04T23:31:46.449Z,21.17
2019-04-04T23:34:16.078Z,19.67
2019-04-04T23:36:45.575Z,18.63
2019-04-04T23:39:15.002Z,18.53
2019-04-04T23:41:44.606Z,19.60
2019-04-04T23:44:14.431Z,18.00
2019-04-04T23:46:43.988Z,19.40
2019-04-04T23:49:13.549Z,19.90
2019-04-04T23:51:43.050Z,17.17
2019-04-04T23:54:12.636Z,16.73
2019-04-04T23:56:42.194Z,24.97
2019-04-04T23:59:11.686Z,17.03
